createdAt,value
2019-03-28T00:01:21.242Z,44.49
2019-03-28T00:03:54.112Z,44.54
2019-03-28T00:06:26.681Z,44.54
2019-03-28T00:08:59.123Z,44.54
2019-03-28T00:11:31.553Z,44.53
2019-03-28T00:14:03.929Z,44.50
2019-03-28T00:16:36.429Z,44.47
2019-03-28T00:19:09.193Z,44.47
2019-03-28T00:21:41.660Z,44.57
2019-03-28T00:24:39.211Z,44.65
2019-03-28T00:27:11.626Z,44.73
2019-03-28T00:29:45.429Z,44.77
2019-03-28T00:32:17.875Z,44.86
2019-03-28T00:34:50.593Z,44.86
2019-03-28T00:37:23.091Z,44.86
2019-03-28T00:39:55.542Z,44.88
2019-03-28T00:42:27.948Z,44.88
2019-03-28T00:45:00.389Z,44.90
2019-03-28T00:47:32.792Z,44.94
2019-03-28T00:50:05.763Z,44.99
2019-03-28T00:52:38.259Z,45.01
2019-03-28T00:55:11.426Z,45.15
2019-03-28T00:57:44.175Z,45.20
2019-03-28T01:00:19.011Z,45.23
2019-03-28T01:02:51.457Z,45.27
2019-03-28T01:05:24.216Z,45.37
2019-03-28T01:07:56.964Z,45.45
2019-03-28T01:10:29.573Z,45.66
2019-03-28T01:13:02.140Z,45.79
2019-03-28T01:15:34.875Z,45.96
2019-03-28T01:18:07.372Z,46.11
2019-03-28T01:20:40.103Z,46.36
2019-03-28T01:23:12.489Z,46.40
2019-03-28T01:25:44.876Z,46.45
2019-03-28T01:28:17.198Z,46.51
2019-03-28T01:30:49.620Z,46.63
2019-03-28T01:33:21.987Z,46.79
2019-03-28T01:35:55.167Z,46.87
2019-03-28T01:38:27.551Z,46.89
2019-03-28T01:41:00.931Z,46.94
2019-03-28T01:43:33.348Z,46.98
2019-03-28T01:46:05.792Z,46.93
2019-03-28T01:48:38.176Z,46.92
2019-03-28T01:51:10.956Z,46.96
2019-03-28T01:53:43.455Z,47.07
2019-03-28T01:56:16.320Z,47.24
2019-03-28T01:58:48.927Z,47.34
2019-03-28T02:01:21.280Z,47.48
2019-03-28T02:03:55.196Z,47.40
2019-03-28T02:06:27.883Z,47.35
2019-03-28T02:09:00.231Z,47.32
2019-03-28T02:11:32.664Z,47.33
2019-03-28T02:14:05.155Z,47.38
2019-03-28T02:16:37.617Z,47.40
2019-03-28T02:19:10.101Z,47.56
2019-03-28T02:21:43.135Z,47.51
2019-03-28T02:24:15.568Z,47.55
2019-03-28T02:26:48.265Z,47.58
2019-03-28T02:29:21.487Z,47.62
2019-03-28T02:31:54.122Z,47.71
2019-03-28T02:34:26.927Z,47.73
2019-03-28T02:36:59.712Z,47.80
2019-03-28T02:39:32.095Z,47.81
2019-03-28T02:42:04.584Z,47.83
2019-03-28T02:44:37.624Z,47.89
2019-03-28T02:47:10.436Z,47.95
2019-03-28T02:49:42.811Z,47.99
2019-03-28T02:52:15.525Z,48.02
2019-03-28T02:54:48.463Z,48.02
2019-03-28T02:57:20.832Z,48.12
2019-03-28T02:59:53.237Z,48.21
2019-03-28T03:02:25.895Z,48.31
2019-03-28T03:04:58.526Z,48.47
2019-03-28T03:07:30.944Z,48.52
2019-03-28T03:10:03.815Z,48.55
2019-03-28T03:12:36.187Z,48.55
2019-03-28T03:15:10.042Z,48.48
2019-03-28T03:17:42.439Z,48.38
2019-03-28T03:20:15.740Z,48.35
2019-03-28T03:22:48.424Z,48.39
2019-03-28T03:25:21.210Z,48.45
2019-03-28T03:27:58.672Z,48.58
2019-03-28T03:30:27.847Z,48.70
2019-03-28T03:33:00.272Z,48.79
2019-03-28T03:35:32.772Z,48.87
2019-03-28T03:38:05.167Z,48.96
2019-03-28T03:40:37.987Z,49.11
2019-03-28T03:43:10.433Z,49.13
2019-03-28T03:45:43.004Z,49.21
2019-03-28T03:48:16.665Z,49.24
2019-03-28T03:50:49.060Z,49.30
2019-03-28T03:53:21.527Z,49.40
2019-03-28T03:55:54.645Z,49.53
2019-03-28T03:58:27.121Z,49.53
2019-03-28T04:00:59.546Z,49.52
2019-03-28T04:03:32.145Z,49.47
2019-03-28T04:06:04.594Z,49.43
2019-03-28T04:08:37.151Z,49.43
2019-03-28T04:11:09.925Z,49.42
2019-03-28T04:13:42.609Z,49.38
2019-03-28T04:16:15.060Z,49.30
2019-03-28T04:18:47.463Z,49.33
2019-03-28T04:21:19.953Z,49.39
2019-03-28T04:23:52.317Z,49.50
2019-03-28T04:26:27.651Z,49.64
2019-03-28T04:29:00.072Z,49.69
2019-03-28T04:31:32.482Z,49.76
2019-03-28T04:34:07.811Z,49.79
2019-03-28T04:36:38.993Z,49.79
2019-03-28T04:39:11.403Z,49.76
2019-03-28T04:41:44.318Z,49.84
2019-03-28T04:44:16.736Z,49.81
2019-03-28T04:46:49.229Z,49.81
2019-03-28T04:49:21.665Z,49.81
2019-03-28T04:51:55.211Z,49.89
2019-03-28T04:54:27.616Z,49.92
2019-03-28T04:57:00.714Z,49.88
2019-03-28T04:59:33.221Z,49.87
2019-03-28T05:02:05.621Z,49.86
2019-03-28T05:04:38.070Z,49.85
2019-03-28T05:07:10.804Z,49.87
2019-03-28T05:09:43.218Z,49.96
2019-03-28T05:12:16.090Z,50.03
2019-03-28T05:14:48.741Z,50.09
2019-03-28T05:17:21.187Z,50.09
2019-03-28T05:19:53.724Z,50.11
2019-03-28T05:22:26.245Z,50.08
2019-03-28T05:24:59.090Z,50.13
2019-03-28T05:27:33.460Z,50.22
2019-03-28T05:30:08.292Z,50.26
2019-03-28T05:32:40.738Z,50.30
2019-03-28T05:35:13.426Z,50.27
2019-03-28T05:37:45.936Z,50.26
2019-03-28T05:40:18.492Z,50.26
2019-03-28T05:42:51.320Z,50.31
2019-03-28T05:45:23.843Z,50.41
2019-03-28T05:48:00.171Z,50.53
2019-03-28T05:50:31.678Z,50.64
2019-03-28T05:53:04.170Z,50.66
2019-03-28T05:55:37.061Z,50.70
2019-03-28T05:58:10.073Z,50.82
2019-03-28T06:00:42.579Z,50.95
2019-03-28T06:03:15.064Z,50.97
2019-03-28T06:05:47.539Z,50.98
2019-03-28T06:08:20.007Z,51.03
2019-03-28T06:10:52.550Z,51.10
2019-03-28T06:13:25.693Z,51.19
2019-03-28T06:15:58.510Z,51.34
2019-03-28T06:18:31.017Z,51.41
2019-03-28T06:21:03.459Z,51.52
2019-03-28T06:23:36.093Z,51.66
2019-03-28T06:26:08.882Z,51.86
2019-03-28T06:28:46.424Z,51.99
2019-03-28T06:31:18.949Z,52.07
2019-03-28T06:33:51.370Z,52.17
2019-03-28T06:36:26.608Z,52.21
2019-03-28T06:38:59.194Z,52.25
2019-03-28T06:41:31.650Z,52.29
2019-03-28T06:44:04.108Z,52.21
2019-03-28T06:46:37.031Z,52.17
2019-03-28T06:49:09.444Z,52.09
2019-03-28T06:51:41.888Z,52.04
2019-03-28T06:54:14.388Z,51.96
2019-03-28T06:56:47.215Z,51.88
2019-03-28T06:59:19.737Z,51.80
2019-03-28T07:01:52.858Z,51.71
2019-03-28T07:04:25.322Z,51.61
2019-03-28T07:06:57.905Z,51.55
2019-03-28T07:09:30.403Z,51.54
2019-03-28T07:12:02.967Z,51.48
2019-03-28T07:14:35.412Z,51.47
2019-03-28T07:17:08.249Z,51.45
2019-03-28T07:19:40.832Z,51.43
2019-03-28T07:22:13.381Z,51.42
2019-03-28T07:24:45.845Z,51.38
2019-03-28T07:27:18.367Z,51.38
2019-03-28T07:29:51.552Z,51.35
2019-03-28T07:32:24.533Z,51.37
2019-03-28T07:34:57.009Z,51.34
2019-03-28T07:37:29.511Z,51.37
2019-03-28T07:40:02.009Z,51.38
2019-03-28T07:42:34.497Z,51.33
2019-03-28T07:45:08.226Z,51.31
2019-03-28T07:47:41.298Z,51.25
2019-03-28T07:50:15.407Z,51.23
2019-03-28T07:52:48.187Z,51.17
2019-03-28T07:55:20.915Z,51.16
2019-03-28T07:57:53.455Z,51.14
2019-03-28T08:00:25.916Z,51.13
2019-03-28T08:02:59.031Z,51.11
2019-03-28T08:05:31.486Z,51.05
2019-03-28T08:08:03.919Z,51.00
2019-03-28T08:10:36.451Z,50.99
2019-03-28T08:13:08.892Z,50.96
2019-03-28T08:15:41.328Z,50.94
2019-03-28T08:18:14.377Z,50.92
2019-03-28T08:20:47.366Z,50.86
2019-03-28T08:23:19.846Z,50.76
2019-03-28T08:25:52.291Z,50.70
2019-03-28T08:28:24.750Z,50.62
2019-03-28T08:30:57.389Z,50.53
2019-03-28T08:33:30.368Z,50.43
2019-03-28T08:36:05.156Z,50.35
2019-03-28T08:38:40.870Z,50.29
2019-03-28T08:41:13.343Z,50.18
2019-03-28T08:43:45.994Z,50.10
2019-03-28T08:46:18.421Z,50.09
2019-03-28T08:48:51.534Z,50.04
2019-03-28T08:51:27.254Z,49.90
2019-03-28T08:53:58.451Z,49.80
2019-03-28T08:56:31.162Z,49.70
2019-03-28T08:59:04.652Z,49.68
2019-03-28T09:01:37.144Z,49.62
2019-03-28T09:04:10.209Z,49.61
2019-03-28T09:06:42.623Z,49.58
2019-03-28T09:09:15.067Z,49.48
2019-03-28T09:11:47.509Z,49.38
2019-03-28T09:14:20.051Z,49.29
2019-03-28T09:16:52.457Z,49.19
2019-03-28T09:19:29.961Z,49.10
2019-03-28T09:22:02.499Z,49.05
2019-03-28T09:24:35.419Z,48.99
2019-03-28T09:27:08.411Z,48.90
2019-03-28T09:29:41.046Z,48.83
2019-03-28T09:32:13.592Z,48.69
2019-03-28T09:34:47.088Z,48.58
2019-03-28T09:37:19.558Z,48.52
2019-03-28T09:39:52.033Z,48.48
2019-03-28T09:42:24.484Z,48.42
2019-03-28T09:44:57.087Z,48.37
2019-03-28T09:47:30.312Z,48.32
2019-03-28T09:50:03.318Z,48.21
2019-03-28T09:52:36.069Z,48.01
2019-03-28T09:55:08.575Z,47.95
2019-03-28T09:57:41.303Z,47.86
2019-03-28T10:00:14.963Z,47.68
2019-03-28T10:02:47.480Z,47.45
2019-03-28T10:05:19.968Z,47.20
2019-03-28T10:07:52.631Z,47.05
2019-03-28T10:10:25.071Z,46.98
2019-03-28T10:12:57.527Z,46.91
2019-03-28T10:15:30.030Z,46.83
2019-03-28T10:18:02.501Z,46.78
2019-03-28T10:20:34.905Z,46.79
2019-03-28T10:23:08.222Z,46.75
2019-03-28T10:25:40.804Z,46.51
2019-03-28T10:28:13.191Z,46.39
2019-03-28T10:30:46.875Z,46.38
2019-03-28T10:33:19.325Z,46.29
2019-03-28T10:35:51.788Z,46.15
2019-03-28T10:38:24.412Z,45.89
2019-03-28T10:40:57.079Z,45.69
2019-03-28T10:43:29.852Z,45.64
2019-03-28T10:46:02.365Z,45.45
2019-03-28T10:48:34.920Z,45.41
2019-03-28T10:51:08.393Z,45.24
2019-03-28T10:53:41.273Z,45.11
2019-03-28T10:56:21.640Z,44.92
2019-03-28T10:58:48.213Z,44.93
2019-03-28T11:01:36.063Z,44.80
2019-03-28T11:03:54.893Z,44.64
2019-03-28T11:06:27.428Z,44.56
2019-03-28T11:09:00.737Z,44.61
2019-03-28T11:11:33.301Z,44.43
2019-03-28T11:14:05.774Z,44.29
2019-03-28T11:16:38.200Z,44.14
2019-03-28T11:19:10.693Z,44.19
2019-03-28T11:21:43.183Z,44.08
2019-03-28T11:24:16.099Z,44.01
2019-03-28T11:26:48.539Z,43.82
2019-03-28T11:29:21.062Z,43.57
2019-03-28T11:31:53.888Z,43.42
2019-03-28T11:34:26.454Z,43.35
2019-03-28T11:36:58.935Z,43.43
2019-03-28T11:39:31.695Z,43.37
2019-03-28T11:42:04.167Z,43.28
2019-03-28T11:44:36.703Z,43.19
2019-03-28T11:47:10.410Z,43.16
2019-03-28T11:49:42.871Z,43.01
2019-03-28T11:52:15.399Z,43.00
2019-03-28T11:54:48.379Z,42.88
2019-03-28T11:57:21.150Z,42.90
2019-03-28T11:59:53.736Z,42.66
2019-03-28T12:02:26.186Z,42.67
2019-03-28T12:04:58.800Z,42.69
2019-03-28T12:07:31.246Z,42.64
2019-03-28T12:10:04.764Z,42.62
2019-03-28T12:12:37.341Z,42.48
2019-03-28T12:15:10.872Z,42.30
2019-03-28T12:17:43.315Z,42.11
2019-03-28T12:20:16.238Z,41.79
2019-03-28T12:22:48.852Z,41.72
2019-03-28T12:25:21.867Z,41.73
2019-03-28T12:27:54.301Z,41.76
2019-03-28T12:30:26.894Z,41.64
2019-03-28T12:32:59.456Z,41.54
2019-03-28T12:35:32.176Z,41.55
2019-03-28T12:38:05.053Z,41.55
2019-03-28T12:40:38.074Z,41.38
2019-03-28T12:43:10.589Z,41.28
2019-03-28T12:45:43.108Z,41.11
2019-03-28T12:48:15.674Z,41.01
2019-03-28T12:50:58.298Z,40.87
2019-03-28T12:53:22.610Z,40.83
2019-03-28T12:55:56.275Z,40.82
2019-03-28T12:58:28.711Z,40.85
2019-03-28T13:01:01.351Z,40.77
2019-03-28T13:03:44.858Z,40.66
2019-03-28T13:06:07.969Z,40.12
2019-03-28T13:08:40.392Z,40.14
2019-03-28T13:16:20.632Z,40.04
2019-03-28T13:18:53.170Z,39.89
2019-03-28T13:21:25.867Z,39.82
2019-03-28T13:23:58.409Z,39.73
2019-03-28T13:26:30.871Z,39.44
2019-03-28T13:29:03.680Z,39.48
2019-03-28T13:31:36.117Z,39.29
2019-03-28T13:34:08.628Z,39.18
2019-03-28T13:36:41.146Z,39.36
2019-03-28T13:39:14.755Z,39.18
2019-03-28T13:41:47.230Z,39.18
2019-03-28T13:44:20.159Z,39.21
2019-03-28T13:46:52.624Z,39.12
2019-03-28T13:49:25.075Z,39.11
2019-03-28T13:51:57.689Z,38.93
2019-03-28T13:54:30.579Z,38.91
2019-03-28T13:57:03.454Z,38.75
2019-03-28T13:59:36.343Z,38.83
2019-03-28T14:02:08.922Z,38.79
2019-03-28T14:04:41.435Z,38.67
2019-03-28T14:07:17.088Z,38.55
2019-03-28T14:09:48.262Z,38.60
2019-03-28T14:12:23.283Z,38.60
2019-03-28T14:14:55.349Z,38.52
2019-03-28T14:17:27.754Z,38.41
2019-03-28T14:20:00.379Z,38.27
2019-03-28T14:22:32.835Z,38.17
2019-03-28T14:25:05.738Z,38.12
2019-03-28T14:27:38.651Z,38.11
2019-03-28T14:30:13.279Z,38.14
2019-03-28T14:32:53.052Z,38.15
2019-03-28T14:35:20.113Z,38.13
2019-03-28T14:37:52.866Z,38.12
2019-03-28T14:40:25.375Z,38.09
2019-03-28T14:42:58.230Z,38.16
2019-03-28T14:45:31.161Z,38.07
2019-03-28T14:48:06.697Z,38.05
2019-03-28T14:50:42.532Z,37.98
2019-03-28T14:53:14.979Z,37.98
2019-03-28T14:55:47.527Z,38.07
2019-03-28T14:58:22.096Z,38.07
2019-03-28T15:00:55.484Z,38.02
2019-03-28T15:03:27.971Z,37.92
2019-03-28T15:06:00.915Z,37.84
2019-03-28T15:08:33.361Z,37.89
2019-03-28T15:11:06.081Z,37.84
2019-03-28T15:13:40.527Z,37.76
2019-03-28T15:16:12.792Z,37.81
2019-03-28T15:18:45.492Z,37.91
2019-03-28T15:21:19.434Z,37.86
2019-03-28T15:23:51.849Z,37.78
2019-03-28T15:26:24.399Z,37.82
2019-03-28T15:28:57.028Z,37.92
2019-03-28T15:31:29.743Z,37.91
2019-03-28T15:34:02.318Z,37.92
2019-03-28T15:36:35.389Z,37.92
2019-03-28T15:39:09.854Z,37.88
2019-03-28T15:41:42.320Z,37.93
2019-03-28T15:44:14.960Z,37.93
2019-03-28T15:46:47.564Z,37.92
2019-03-28T15:49:20.113Z,37.96
2019-03-28T15:51:53.209Z,37.97
2019-03-28T15:54:25.668Z,38.00
2019-03-28T15:56:58.857Z,38.04
2019-03-28T15:59:31.305Z,38.06
2019-03-28T16:02:03.765Z,37.97
2019-03-28T16:04:36.277Z,37.99
2019-03-28T16:07:09.378Z,38.01
2019-03-28T16:09:41.926Z,38.02
2019-03-28T16:12:14.456Z,37.96
2019-03-28T16:14:46.978Z,37.98
2019-03-28T16:17:21.629Z,38.04
2019-03-28T16:19:54.459Z,38.02
2019-03-28T16:22:27.629Z,38.02
2019-03-28T16:25:00.341Z,38.05
2019-03-28T16:27:32.785Z,38.14
2019-03-28T16:30:06.465Z,38.16
2019-03-28T16:32:38.982Z,38.15
2019-03-28T16:35:11.713Z,38.10
2019-03-28T16:37:44.244Z,38.15
2019-03-28T16:40:17.552Z,38.07
2019-03-28T16:42:50.045Z,38.13
2019-03-28T16:45:22.788Z,38.11
2019-03-28T16:47:55.234Z,38.10
2019-03-28T16:50:27.835Z,38.10
2019-03-28T16:53:00.329Z,38.07
2019-03-28T16:55:33.502Z,38.07
2019-03-28T16:58:06.380Z,38.16
2019-03-28T17:00:40.290Z,38.15
2019-03-28T17:03:12.861Z,38.21
2019-03-28T17:05:47.130Z,38.26
2019-03-28T17:08:20.303Z,38.30
2019-03-28T17:10:57.637Z,38.33
2019-03-28T17:13:30.264Z,38.40
2019-03-28T17:16:02.994Z,38.47
2019-03-28T17:18:35.713Z,38.53
2019-03-28T17:21:08.237Z,38.57
2019-03-28T17:23:40.733Z,38.60
2019-03-28T17:26:13.826Z,38.63
2019-03-28T17:28:46.622Z,38.66
2019-03-28T17:31:19.326Z,38.68
2019-03-28T17:33:51.827Z,38.73
2019-03-28T17:36:26.698Z,38.79
2019-03-28T17:38:58.695Z,38.86
2019-03-28T17:41:32.057Z,38.92
2019-03-28T17:44:05.782Z,38.98
2019-03-28T17:46:38.611Z,39.08
2019-03-28T17:49:11.116Z,39.17
2019-03-28T17:51:43.699Z,39.26
2019-03-28T17:54:16.332Z,39.38
2019-03-28T17:56:49.838Z,39.45
2019-03-28T17:59:22.352Z,39.53
2019-03-28T18:01:54.957Z,39.63
2019-03-28T18:04:28.790Z,39.74
2019-03-28T18:07:01.527Z,39.81
2019-03-28T18:09:34.195Z,39.88
2019-03-28T18:12:07.115Z,39.96
2019-03-28T18:14:39.803Z,40.05
2019-03-28T18:17:12.486Z,40.11
2019-03-28T18:19:45.298Z,40.21
2019-03-28T18:22:17.974Z,40.26
2019-03-28T18:24:50.415Z,40.29
2019-03-28T18:27:23.523Z,40.35
2019-03-28T18:29:56.916Z,40.41
2019-03-28T18:32:29.485Z,40.47
2019-03-28T18:35:05.533Z,40.52
2019-03-28T18:37:36.368Z,40.61
2019-03-28T18:40:09.513Z,40.65
2019-03-28T18:42:42.719Z,40.68
2019-03-28T18:45:15.592Z,40.74
2019-03-28T18:47:48.545Z,40.82
2019-03-28T18:50:21.238Z,40.87
2019-03-28T18:52:59.225Z,40.95
2019-03-28T18:55:31.785Z,41.02
2019-03-28T18:58:05.758Z,41.10
2019-03-28T19:00:38.356Z,41.10
2019-03-28T19:03:10.899Z,41.18
2019-03-28T19:05:43.531Z,41.21
2019-03-28T19:08:17.571Z,41.25
2019-03-28T19:10:51.053Z,41.33
2019-03-28T19:13:24.722Z,41.37
2019-03-28T19:15:57.384Z,41.40
2019-03-28T19:18:29.873Z,41.43
2019-03-28T19:21:02.389Z,41.46
2019-03-28T19:23:35.557Z,41.53
2019-03-28T19:26:10.633Z,41.54
2019-03-28T19:28:43.253Z,41.61
2019-03-28T19:31:15.744Z,41.69
2019-03-28T19:33:48.444Z,41.78
2019-03-28T19:36:21.462Z,41.84
2019-03-28T19:38:55.133Z,41.94
2019-03-28T19:41:28.733Z,42.02
2019-03-28T19:44:01.348Z,42.08
2019-03-28T19:46:34.079Z,42.16
2019-03-28T19:49:06.543Z,42.30
2019-03-28T19:51:39.231Z,42.29
2019-03-28T19:54:11.892Z,42.36
2019-03-28T19:56:44.449Z,42.37
2019-03-28T19:59:17.384Z,42.38
2019-03-28T20:01:50.047Z,42.44
2019-03-28T20:04:22.681Z,42.49
2019-03-28T20:06:55.250Z,42.57
2019-03-28T20:09:27.786Z,42.65
2019-03-28T20:12:03.427Z,42.67
2019-03-28T20:14:34.567Z,42.73
2019-03-28T20:17:07.272Z,42.79
2019-03-28T20:19:39.770Z,42.85
2019-03-28T20:22:12.430Z,42.90
2019-03-28T20:24:44.935Z,42.92
2019-03-28T20:27:17.529Z,43.00
2019-03-28T20:29:50.536Z,43.04
2019-03-28T20:32:23.311Z,43.07
2019-03-28T20:34:56.187Z,43.14
2019-03-28T20:37:29.049Z,43.21
2019-03-28T20:40:01.855Z,43.29
2019-03-28T20:42:35.021Z,43.34
2019-03-28T20:45:09.289Z,43.39
2019-03-28T20:47:42.202Z,43.44
2019-03-28T20:50:16.064Z,43.45
2019-03-28T20:52:48.679Z,43.49
2019-03-28T20:55:21.266Z,43.52
2019-03-28T20:57:54.411Z,43.58
2019-03-28T21:00:47.728Z,43.64
2019-03-28T21:03:20.622Z,43.67
2019-03-28T21:05:53.304Z,43.63
2019-03-28T21:08:25.832Z,43.67
2019-03-28T21:10:59.120Z,43.70
2019-03-28T21:13:31.981Z,43.75
2019-03-28T21:16:04.616Z,43.82
2019-03-28T21:18:37.515Z,43.89
2019-03-28T21:21:10.161Z,43.87
2019-03-28T21:23:42.743Z,43.93
2019-03-28T21:26:15.434Z,44.00
2019-03-28T21:28:48.029Z,44.05
2019-03-28T21:31:20.494Z,44.07
2019-03-28T21:33:54.880Z,44.13
2019-03-28T21:36:29.967Z,44.22
2019-03-28T21:39:01.436Z,44.28
2019-03-28T21:41:34.031Z,44.36
2019-03-28T21:44:06.627Z,44.34
2019-03-28T21:46:39.202Z,44.34
2019-03-28T21:49:11.892Z,44.35
2019-03-28T21:51:45.896Z,44.41
2019-03-28T21:54:19.225Z,44.42
2019-03-28T21:56:51.683Z,44.47
2019-03-28T21:59:24.561Z,44.49
2019-03-28T22:01:57.098Z,44.58
2019-03-28T22:04:29.784Z,44.63
2019-03-28T22:07:02.252Z,44.74
2019-03-28T22:09:34.761Z,44.77
2019-03-28T22:12:07.393Z,44.86
2019-03-28T22:14:40.130Z,44.96
2019-03-28T22:17:12.751Z,45.02
2019-03-28T22:19:45.254Z,45.05
2019-03-28T22:22:17.923Z,45.12
2019-03-28T22:24:50.492Z,45.14
2019-03-28T22:27:23.467Z,45.23
2019-03-28T22:29:56.118Z,45.25
2019-03-28T22:32:28.692Z,45.29
2019-03-28T22:35:01.335Z,45.31
2019-03-28T22:37:35.169Z,45.36
2019-03-28T22:40:11.720Z,45.46
2019-03-28T22:42:42.785Z,45.50
2019-03-28T22:45:15.885Z,45.60
2019-03-28T22:47:48.348Z,45.65
2019-03-28T22:50:20.900Z,45.71
2019-03-28T22:52:53.506Z,45.77
2019-03-28T22:55:25.980Z,45.87
2019-03-28T22:57:58.759Z,46.00
2019-03-28T23:00:49.191Z,46.19
2019-03-28T23:03:21.675Z,46.34
2019-03-28T23:05:54.123Z,46.42
2019-03-28T23:08:26.677Z,46.50
2019-03-28T23:10:59.265Z,46.51
2019-03-28T23:13:31.775Z,46.53
2019-03-28T23:16:04.187Z,46.56
2019-03-28T23:18:36.732Z,46.60
2019-03-28T23:21:09.300Z,46.65
2019-03-28T23:23:41.746Z,46.71
2019-03-28T23:26:14.206Z,46.71
2019-03-28T23:28:46.887Z,46.70
2019-03-28T23:31:19.324Z,46.80
2019-03-28T23:33:53.661Z,46.84
2019-03-28T23:36:26.089Z,46.93
2019-03-28T23:38:58.556Z,47.02
2019-03-28T23:41:30.905Z,47.14
2019-03-28T23:44:03.322Z,47.18
2019-03-28T23:46:35.817Z,47.23
2019-03-28T23:49:08.431Z,47.29
2019-03-28T23:51:40.897Z,47.45
2019-03-28T23:54:13.379Z,47.55
2019-03-28T23:56:45.804Z,47.63
2019-03-28T23:59:18.755Z,47.70
